createdAt,value
2018-07-05T00:02:10.856Z,4.17
2018-07-05T00:07:32.156Z,3.83
2018-07-05T00:12:47.309Z,4.10
2018-07-05T00:18:02.595Z,4.10
2018-07-05T00:23:17.875Z,4.27
2018-07-05T00:28:33.132Z,4.30
2018-07-05T00:33:54.286Z,4.00
2018-07-05T00:39:09.597Z,4.30
2018-07-05T00:44:24.932Z,4.20
2018-07-05T00:49:40.344Z,4.67
2018-07-05T00:55:01.554Z,4.60
2018-07-05T01:00:22.674Z,4.80
2018-07-05T01:05:37.872Z,4.90
2018-07-05T01:10:53.110Z,5.10
2018-07-05T01:16:08.200Z,4.80
2018-07-05T01:21:29.475Z,4.50
2018-07-05T01:26:50.587Z,4.87
2018-07-05T01:32:05.649Z,4.80
2018-07-05T01:37:27.075Z,4.83
2018-07-05T01:42:42.296Z,5.00
2018-07-05T01:47:57.356Z,5.40
2018-07-05T01:53:18.585Z,5.20
2018-07-05T01:58:39.822Z,5.53
2018-07-05T02:04:01.048Z,5.60
2018-07-05T02:09:16.248Z,5.60
2018-07-05T02:14:31.347Z,5.57
2018-07-05T02:19:46.441Z,5.70
2018-07-05T02:25:07.421Z,5.53
2018-07-05T02:30:22.484Z,5.03
2018-07-05T02:35:37.605Z,5.60
2018-07-05T02:40:58.871Z,5.70
2018-07-05T02:46:14.001Z,5.37
2018-07-05T02:51:29.232Z,5.40
2018-07-05T02:56:44.558Z,6.07
2018-07-05T03:01:59.669Z,6.13
2018-07-05T03:07:20.941Z,5.50
2018-07-05T03:12:36.083Z,6.33
2018-07-05T03:17:51.396Z,6.23
2018-07-05T03:23:06.605Z,6.50
2018-07-05T03:28:22.510Z,6.33
2018-07-05T03:33:37.673Z,5.60
2018-07-05T03:38:59.149Z,5.80
2018-07-05T03:44:14.240Z,5.17
2018-07-05T03:49:29.529Z,5.50
2018-07-05T03:54:44.784Z,5.90
2018-07-05T04:00:00.150Z,5.33
2018-07-05T04:05:21.246Z,5.80
2018-07-05T04:10:42.446Z,5.70
2018-07-05T04:15:57.498Z,5.97
2018-07-05T04:21:12.690Z,5.63
2018-07-05T04:26:27.912Z,5.70
2018-07-05T04:31:43.022Z,5.80
2018-07-05T04:36:58.084Z,6.23
2018-07-05T04:42:13.277Z,5.47
2018-07-05T04:47:28.518Z,6.40
2018-07-05T04:52:49.557Z,5.50
2018-07-05T04:58:10.739Z,6.00
2018-07-05T05:03:26.073Z,6.13
2018-07-05T05:08:41.295Z,6.23
2018-07-05T05:14:04.352Z,6.47
2018-07-05T05:19:19.526Z,7.10
2018-07-05T05:24:34.604Z,6.67
2018-07-05T05:29:49.609Z,6.33
2018-07-05T05:35:11.003Z,6.17
2018-07-05T05:40:32.143Z,5.83
2018-07-05T05:45:53.259Z,5.33
2018-07-05T05:51:08.403Z,6.22
2018-07-05T05:56:29.465Z,5.50
2018-07-05T06:01:44.439Z,5.30
2018-07-05T06:06:59.523Z,5.07
2018-07-05T06:12:20.703Z,5.30
2018-07-05T06:17:35.877Z,5.40
2018-07-05T06:22:51.041Z,5.40
2018-07-05T06:28:12.173Z,5.60
2018-07-05T06:33:27.281Z,6.50
2018-07-05T06:38:42.604Z,7.70
2018-07-05T06:43:57.694Z,6.50
2018-07-05T06:49:13.061Z,8.18
2018-07-05T06:54:28.122Z,8.50
2018-07-05T06:59:43.298Z,9.77
2018-07-05T07:04:58.590Z,9.60
2018-07-05T07:10:19.791Z,9.17
2018-07-05T07:15:41.213Z,8.13
2018-07-05T07:20:56.212Z,9.70
2018-07-05T07:26:11.272Z,8.60
2018-07-05T07:31:26.642Z,9.70
2018-07-05T07:36:41.873Z,13.57
2018-07-05T07:41:47.033Z,11.87
2018-07-05T07:46:49.842Z,11.77
2018-07-05T07:51:52.653Z,11.67
2018-07-05T07:56:55.461Z,14.00
2018-07-05T08:01:58.271Z,12.13
2018-07-05T08:07:01.368Z,14.13
2018-07-05T08:12:04.170Z,13.30
2018-07-05T08:17:06.738Z,14.00
2018-07-05T08:22:09.564Z,13.33
2018-07-05T08:27:12.173Z,15.40
2018-07-05T08:32:14.993Z,13.00
2018-07-05T08:37:17.814Z,13.43
2018-07-05T08:42:20.360Z,15.30
2018-07-05T08:47:23.184Z,16.87
2018-07-05T08:52:25.999Z,16.17
2018-07-05T08:57:28.562Z,17.90
2018-07-05T09:02:31.134Z,17.17
2018-07-05T09:07:33.953Z,17.90
2018-07-05T09:12:36.785Z,18.03
2018-07-05T09:17:39.650Z,17.23
2018-07-05T09:22:42.668Z,19.90
2018-07-05T09:27:45.490Z,17.77
2018-07-05T09:32:48.328Z,19.47
2018-07-05T09:37:51.145Z,17.70
2018-07-05T09:42:53.721Z,18.20
2018-07-05T09:47:56.533Z,18.57
2018-07-05T09:52:59.376Z,18.50
2018-07-05T09:58:01.987Z,18.77
2018-07-05T10:03:04.749Z,19.23
2018-07-05T10:08:07.573Z,17.20
2018-07-05T10:13:10.921Z,22.63
2018-07-05T10:18:13.588Z,16.93
2018-07-05T10:23:16.404Z,17.10
2018-07-05T10:28:19.228Z,18.70
2018-07-05T10:33:40.578Z,19.20
2018-07-05T10:38:43.432Z,20.87
2018-07-05T10:43:58.541Z,18.50
2018-07-05T10:49:13.785Z,19.87
2018-07-05T10:54:29.071Z,17.17
2018-07-05T10:59:44.306Z,18.87
2018-07-05T11:04:59.643Z,18.60
2018-07-05T11:10:14.721Z,18.27
2018-07-05T11:15:36.018Z,18.40
2018-07-05T11:20:57.254Z,17.90
2018-07-05T11:26:12.509Z,18.70
2018-07-05T11:31:27.802Z,19.37
2018-07-05T11:36:49.025Z,20.43
2018-07-05T11:42:04.232Z,18.43
2018-07-05T11:47:19.288Z,20.97
2018-07-05T11:52:40.464Z,22.43
2018-07-05T11:57:55.582Z,22.80
2018-07-05T12:03:16.802Z,22.40
2018-07-05T12:08:32.063Z,21.77
2018-07-05T12:13:47.348Z,23.37
2018-07-05T12:19:08.718Z,21.67
2018-07-05T12:24:29.811Z,22.40
2018-07-05T12:29:45.109Z,19.20
2018-07-05T12:35:06.736Z,20.35
2018-07-05T12:40:27.981Z,19.37
2018-07-05T12:45:43.292Z,20.27
2018-07-05T12:50:58.542Z,18.63
2018-07-05T12:56:13.750Z,17.17
2018-07-05T13:01:35.056Z,16.20
2018-07-05T13:06:50.298Z,16.30
2018-07-05T13:12:05.267Z,13.37
2018-07-05T13:17:20.236Z,12.60
2018-07-05T13:22:41.494Z,11.67
2018-07-05T13:27:56.600Z,9.53
2018-07-05T13:33:11.949Z,8.70
2018-07-05T13:38:27.072Z,8.60
2018-07-05T13:43:42.213Z,7.20
2018-07-05T13:49:03.405Z,7.80
2018-07-05T13:54:18.673Z,8.30
2018-07-05T13:59:34.792Z,8.97
2018-07-05T14:04:55.883Z,10.77
2018-07-05T14:10:11.109Z,9.27
2018-07-05T14:15:26.219Z,9.10
2018-07-05T14:20:41.369Z,8.63
2018-07-05T14:26:02.414Z,8.20
2018-07-05T14:31:17.814Z,8.70
2018-07-05T14:36:39.002Z,9.70
2018-07-05T14:42:00.377Z,8.77
2018-07-05T14:47:21.542Z,8.90
2018-07-05T14:52:42.746Z,8.77
2018-07-05T14:57:57.755Z,8.97
2018-07-05T15:03:12.847Z,7.27
2018-07-05T15:08:33.959Z,6.83
2018-07-05T15:13:49.180Z,6.93
2018-07-05T15:19:10.430Z,5.80
2018-07-05T15:24:31.434Z,6.33
2018-07-05T15:29:46.585Z,5.43
2018-07-05T15:35:01.881Z,5.67
2018-07-05T15:40:17.292Z,6.60
2018-07-05T15:45:38.586Z,5.97
2018-07-05T15:50:59.893Z,6.87
2018-07-05T15:56:15.060Z,6.23
2018-07-05T16:01:36.201Z,5.90
2018-07-05T16:06:57.193Z,6.47
2018-07-05T16:12:12.276Z,6.87
2018-07-05T16:17:27.364Z,7.37
2018-07-05T16:22:48.652Z,7.87
2018-07-05T16:28:03.877Z,7.17
2018-07-05T16:33:19.028Z,7.70
2018-07-05T16:38:34.152Z,7.43
2018-07-05T16:43:55.365Z,7.70
2018-07-05T16:49:11.354Z,7.47
2018-07-05T16:59:40.520Z,7.23
2018-07-05T17:04:55.673Z,7.50
2018-07-05T17:10:10.759Z,7.53
2018-07-05T17:15:26.061Z,8.07
2018-07-05T17:20:47.437Z,7.03
2018-07-05T17:26:08.593Z,7.23
2018-07-05T17:31:23.721Z,7.37
2018-07-05T17:36:38.925Z,6.97
2018-07-05T17:41:54.108Z,7.50
2018-07-05T17:47:15.373Z,6.97
2018-07-05T17:52:30.653Z,7.83
2018-07-05T17:57:45.743Z,6.63
2018-07-05T18:03:00.905Z,7.80
2018-07-05T18:08:16.233Z,7.10
2018-07-05T18:13:37.499Z,6.97
2018-07-05T18:18:58.629Z,6.60
2018-07-05T18:24:13.870Z,7.50
2018-07-05T18:29:29.146Z,6.80
2018-07-05T18:34:50.470Z,6.87
2018-07-05T18:40:05.663Z,7.03
2018-07-05T18:45:26.836Z,7.93
2018-07-05T18:50:41.981Z,7.03
2018-07-05T18:55:57.149Z,7.03
2018-07-05T19:01:12.409Z,6.90
2018-07-05T19:06:27.793Z,6.77
2018-07-05T19:11:42.980Z,7.23
2018-07-05T19:17:04.198Z,6.53
2018-07-05T19:22:19.362Z,6.47
2018-07-05T19:27:40.490Z,6.10
2018-07-05T19:32:55.770Z,6.43
2018-07-05T19:38:17.115Z,6.40
2018-07-05T19:43:38.485Z,6.13
2018-07-05T19:48:59.786Z,6.67
2018-07-05T19:54:21.044Z,6.57
2018-07-05T19:59:42.333Z,6.63
2018-07-05T20:04:57.825Z,6.70
2018-07-05T20:10:13.052Z,6.37
2018-07-05T20:15:28.284Z,6.17
2018-07-05T20:20:49.768Z,6.97
2018-07-05T20:26:04.818Z,6.60
2018-07-05T20:31:19.964Z,6.33
2018-07-05T20:36:41.270Z,6.10
2018-07-05T20:41:56.396Z,7.00
2018-07-05T20:47:17.728Z,6.47
2018-07-05T20:52:32.933Z,6.80
2018-07-05T20:57:48.123Z,7.00
2018-07-05T21:03:03.292Z,6.60
2018-07-05T21:08:24.470Z,6.63
2018-07-05T21:13:39.776Z,6.47
2018-07-05T21:18:54.941Z,7.17
2018-07-05T21:24:16.041Z,6.30
2018-07-05T21:29:37.333Z,7.47
2018-07-05T21:34:52.488Z,7.40
2018-07-05T21:40:07.634Z,7.67
2018-07-05T21:45:22.980Z,7.70
2018-07-05T21:50:38.178Z,7.77
2018-07-05T21:55:53.359Z,7.60
2018-07-05T22:01:08.882Z,8.23
2018-07-05T22:06:23.947Z,10.27
2018-07-05T22:11:39.090Z,7.97
2018-07-05T22:16:59.733Z,7.97
2018-07-05T22:22:20.245Z,8.83
2018-07-05T22:28:42.533Z,9.07
2018-07-05T22:33:58.034Z,8.27
2018-07-05T22:39:13.308Z,7.80
2018-07-05T22:44:28.516Z,7.53
2018-07-05T22:49:43.742Z,6.50
2018-07-05T22:54:58.914Z,7.17
2018-07-05T23:00:20.038Z,7.43
2018-07-05T23:05:35.138Z,7.13
2018-07-05T23:10:50.345Z,7.10
2018-07-05T23:16:05.397Z,7.00
2018-07-05T23:21:26.637Z,6.37
2018-07-05T23:26:47.858Z,6.60
2018-07-05T23:32:09.116Z,6.80
2018-07-05T23:37:30.240Z,6.57
2018-07-05T23:42:45.412Z,6.50
2018-07-05T23:48:00.698Z,6.83
2018-07-05T23:53:16.008Z,5.70
2018-07-05T23:58:31.313Z,5.60
